sensor_id;sensor_type;location;lat;lon;timestamp;temperature;humidity
20337;DHT22;10326;53.660;10.200;2023-06-26T00:00:47;24.50;71.90
20337;DHT22;10326;53.660;10.200;2023-06-26T00:03:14;24.40;71.80
20337;DHT22;10326;53.660;10.200;2023-06-26T00:05:41;24.40;71.70
20337;DHT22;10326;53.660;10.200;2023-06-26T00:08:11;24.40;71.90
20337;DHT22;10326;53.660;10.200;2023-06-26T00:10:38;24.40;72.10
20337;DHT22;10326;53.660;10.200;2023-06-26T00:13:05;24.40;72.10
20337;DHT22;10326;53.660;10.200;2023-06-26T00:15:34;24.30;72.20
20337;DHT22;10326;53.660;10.200;2023-06-26T00:18:01;24.30;72.30
20337;DHT22;10326;53.660;10.200;2023-06-26T00:20:29;24.30;72.20
20337;DHT22;10326;53.660;10.200;2023-06-26T00:22:59;24.20;72.40
20337;DHT22;10326;53.660;10.200;2023-06-26T00:25:26;24.20;72.50
20337;DHT22;10326;53.660;10.200;2023-06-26T00:27:53;24.20;72.60
20337;DHT22;10326;53.660;10.200;2023-06-26T00:30:20;24.10;72.60
20337;DHT22;10326;53.660;10.200;2023-06-26T00:32:50;24.10;72.70
20337;DHT22;10326;53.660;10.200;2023-06-26T00:35:17;24.10;73.00
20337;DHT22;10326;53.660;10.200;2023-06-26T00:37:44;24.10;72.80
20337;DHT22;10326;53.660;10.200;2023-06-26T00:40:12;24.10;72.90
20337;DHT22;10326;53.660;10.200;2023-06-26T00:42:40;24.00;72.90
20337;DHT22;10326;53.660;10.200;2023-06-26T00:45:07;24.00;72.90
20337;DHT22;10326;53.660;10.200;2023-06-26T00:47:35;24.00;73.00
20337;DHT22;10326;53.660;10.200;2023-06-26T00:50:06;24.00;73.10
20337;DHT22;10326;53.660;10.200;2023-06-26T00:52:34;23.90;73.30
20337;DHT22;10326;53.660;10.200;2023-06-26T00:55:04;23.90;73.30
20337;DHT22;10326;53.660;10.200;2023-06-26T00:57:32;23.90;73.50
20337;DHT22;10326;53.660;10.200;2023-06-26T01:00:01;23.90;73.50
20337;DHT22;10326;53.660;10.200;2023-06-26T01:02:30;23.80;73.60
20337;DHT22;10326;53.660;10.200;2023-06-26T01:05:00;23.80;73.50
20337;DHT22;10326;53.660;10.200;2023-06-26T01:07:30;23.80;73.50
20337;DHT22;10326;53.660;10.200;2023-06-26T01:10:02;23.80;73.70
20337;DHT22;10326;53.660;10.200;2023-06-26T01:12:31;23.80;73.70
20337;DHT22;10326;53.660;10.200;2023-06-26T01:15:00;23.70;73.70
20337;DHT22;10326;53.660;10.200;2023-06-26T01:17:28;23.70;73.70
20337;DHT22;10326;53.660;10.200;2023-06-26T01:19:57;23.70;73.80
20337;DHT22;10326;53.660;10.200;2023-06-26T01:22:39;23.70;73.80
20337;DHT22;10326;53.660;10.200;2023-06-26T01:25:17;23.70;74.10
20337;DHT22;10326;53.660;10.200;2023-06-26T01:27:50;23.60;74.00
20337;DHT22;10326;53.660;10.200;2023-06-26T01:30:22;23.60;73.90
20337;DHT22;10326;53.660;10.200;2023-06-26T01:32:50;23.60;73.90
20337;DHT22;10326;53.660;10.200;2023-06-26T01:35:17;23.60;73.90
20337;DHT22;10326;53.660;10.200;2023-06-26T01:37:46;23.60;74.00
20337;DHT22;10326;53.660;10.200;2023-06-26T01:40:13;23.50;74.10
20337;DHT22;10326;53.660;10.200;2023-06-26T01:42:40;23.50;74.30
20337;DHT22;10326;53.660;10.200;2023-06-26T01:45:14;23.50;74.30
20337;DHT22;10326;53.660;10.200;2023-06-26T01:47:50;23.50;74.60
20337;DHT22;10326;53.660;10.200;2023-06-26T01:50:22;23.50;74.50
20337;DHT22;10326;53.660;10.200;2023-06-26T01:52:56;23.40;74.70
20337;DHT22;10326;53.660;10.200;2023-06-26T01:55:32;23.40;74.70
20337;DHT22;10326;53.660;10.200;2023-06-26T01:58:06;23.40;74.90
20337;DHT22;10326;53.660;10.200;2023-06-26T02:00:36;23.40;74.60
20337;DHT22;10326;53.660;10.200;2023-06-26T02:03:04;23.30;74.70
20337;DHT22;10326;53.660;10.200;2023-06-26T02:05:33;23.30;74.60
20337;DHT22;10326;53.660;10.200;2023-06-26T02:08:00;23.30;74.90
20337;DHT22;10326;53.660;10.200;2023-06-26T02:10:29;23.30;74.80
20337;DHT22;10326;53.660;10.200;2023-06-26T02:12:57;23.30;74.90
20337;DHT22;10326;53.660;10.200;2023-06-26T02:15:24;23.30;74.90
20337;DHT22;10326;53.660;10.200;2023-06-26T02:17:54;23.20;75.70
20337;DHT22;10326;53.660;10.200;2023-06-26T02:20:21;23.20;75.20
20337;DHT22;10326;53.660;10.200;2023-06-26T02:22:48;23.20;75.30
20337;DHT22;10326;53.660;10.200;2023-06-26T02:25:17;23.20;75.20
20337;DHT22;10326;53.660;10.200;2023-06-26T02:27:44;23.20;75.40
20337;DHT22;10326;53.660;10.200;2023-06-26T02:30:12;23.20;75.50
20337;DHT22;10326;53.660;10.200;2023-06-26T02:32:39;23.10;75.50
20337;DHT22;10326;53.660;10.200;2023-06-26T02:35:08;23.10;75.50
20337;DHT22;10326;53.660;10.200;2023-06-26T02:37:41;23.10;75.70
20337;DHT22;10326;53.660;10.200;2023-06-26T02:40:09;23.10;75.60
20337;DHT22;10326;53.660;10.200;2023-06-26T02:42:38;23.10;75.70
20337;DHT22;10326;53.660;10.200;2023-06-26T02:45:07;23.00;75.70
20337;DHT22;10326;53.660;10.200;2023-06-26T02:47:35;23.00;75.80
20337;DHT22;10326;53.660;10.200;2023-06-26T02:50:08;23.00;75.80
20337;DHT22;10326;53.660;10.200;2023-06-26T02:52:56;23.00;75.90
20337;DHT22;10326;53.660;10.200;2023-06-26T02:55:27;23.00;75.80
20337;DHT22;10326;53.660;10.200;2023-06-26T02:57:55;23.00;76.10
20337;DHT22;10326;53.660;10.200;2023-06-26T03:00:23;22.90;76.00
20337;DHT22;10326;53.660;10.200;2023-06-26T03:02:53;22.90;76.00
20337;DHT22;10326;53.660;10.200;2023-06-26T03:05:23;22.90;76.10
20337;DHT22;10326;53.660;10.200;2023-06-26T03:07:51;22.90;76.40
20337;DHT22;10326;53.660;10.200;2023-06-26T03:10:19;22.90;76.30
20337;DHT22;10326;53.660;10.200;2023-06-26T03:12:46;22.90;76.50
20337;DHT22;10326;53.660;10.200;2023-06-26T03:15:16;22.90;76.60
20337;DHT22;10326;53.660;10.200;2023-06-26T03:17:45;22.90;76.60
20337;DHT22;10326;53.660;10.200;2023-06-26T03:20:18;22.90;76.60
20337;DHT22;10326;53.660;10.200;2023-06-26T03:22:53;22.80;76.70
20337;DHT22;10326;53.660;10.200;2023-06-26T03:25:22;22.80;76.80
20337;DHT22;10326;53.660;10.200;2023-06-26T03:27:56;22.80;76.80
20337;DHT22;10326;53.660;10.200;2023-06-26T03:30:25;22.80;76.90
20337;DHT22;10326;53.660;10.200;2023-06-26T03:32:56;22.80;77.00
20337;DHT22;10326;53.660;10.200;2023-06-26T03:35:23;22.80;77.10
20337;DHT22;10326;53.660;10.200;2023-06-26T03:37:50;22.80;77.20
20337;DHT22;10326;53.660;10.200;2023-06-26T03:40:19;22.80;77.20
20337;DHT22;10326;53.660;10.200;2023-06-26T03:42:47;22.80;77.30
20337;DHT22;10326;53.660;10.200;2023-06-26T03:45:15;22.80;77.50
20337;DHT22;10326;53.660;10.200;2023-06-26T03:47:43;22.80;77.50
20337;DHT22;10326;53.660;10.200;2023-06-26T03:50:13;22.80;77.60
20337;DHT22;10326;53.660;10.200;2023-06-26T03:52:41;22.80;77.70
20337;DHT22;10326;53.660;10.200;2023-06-26T03:55:11;22.80;77.70
20337;DHT22;10326;53.660;10.200;2023-06-26T03:57:40;22.80;78.00
20337;DHT22;10326;53.660;10.200;2023-06-26T04:00:10;22.80;78.00
20337;DHT22;10326;53.660;10.200;2023-06-26T04:02:42;22.80;78.20
20337;DHT22;10326;53.660;10.200;2023-06-26T04:05:11;22.80;78.20
20337;DHT22;10326;53.660;10.200;2023-06-26T04:07:39;22.80;78.30
20337;DHT22;10326;53.660;10.200;2023-06-26T04:10:07;22.80;78.40
20337;DHT22;10326;53.660;10.200;2023-06-26T04:12:35;22.80;78.50
20337;DHT22;10326;53.660;10.200;2023-06-26T04:15:04;22.90;78.70
20337;DHT22;10326;53.660;10.200;2023-06-26T04:17:33;22.90;78.80
20337;DHT22;10326;53.660;10.200;2023-06-26T04:20:00;22.90;78.70
20337;DHT22;10326;53.660;10.200;2023-06-26T04:22:30;22.90;78.80
20337;DHT22;10326;53.660;10.200;2023-06-26T04:24:57;22.90;79.00
20337;DHT22;10326;53.660;10.200;2023-06-26T04:27:25;22.90;79.10
20337;DHT22;10326;53.660;10.200;2023-06-26T04:29:52;22.90;79.10
20337;DHT22;10326;53.660;10.200;2023-06-26T04:32:22;22.90;79.20
20337;DHT22;10326;53.660;10.200;2023-06-26T04:34:49;22.90;79.40
20337;DHT22;10326;53.660;10.200;2023-06-26T04:37:16;23.00;79.30
20337;DHT22;10326;53.660;10.200;2023-06-26T04:39:43;23.00;79.40
20337;DHT22;10326;53.660;10.200;2023-06-26T04:42:11;23.00;79.30
20337;DHT22;10326;53.660;10.200;2023-06-26T04:44:38;23.00;79.50
20337;DHT22;10326;53.660;10.200;2023-06-26T04:47:06;23.10;79.70
20337;DHT22;10326;53.660;10.200;2023-06-26T04:49:36;23.00;79.70
20337;DHT22;10326;53.660;10.200;2023-06-26T04:52:04;23.10;79.80
20337;DHT22;10326;53.660;10.200;2023-06-26T04:54:31;23.10;79.60
20337;DHT22;10326;53.660;10.200;2023-06-26T04:56:59;23.10;79.70
20337;DHT22;10326;53.660;10.200;2023-06-26T04:59:26;23.10;79.80
20337;DHT22;10326;53.660;10.200;2023-06-26T05:01:53;23.20;79.80
20337;DHT22;10326;53.660;10.200;2023-06-26T05:04:20;23.20;79.80
20337;DHT22;10326;53.660;10.200;2023-06-26T05:06:49;23.20;79.70
20337;DHT22;10326;53.660;10.200;2023-06-26T05:09:17;23.30;79.80
20337;DHT22;10326;53.660;10.200;2023-06-26T05:11:44;23.20;79.70
20337;DHT22;10326;53.660;10.200;2023-06-26T05:14:11;23.30;79.90
20337;DHT22;10326;53.660;10.200;2023-06-26T05:16:39;23.30;79.90
20337;DHT22;10326;53.660;10.200;2023-06-26T05:19:06;23.40;79.90
20337;DHT22;10326;53.660;10.200;2023-06-26T05:21:34;23.40;80.00
20337;DHT22;10326;53.660;10.200;2023-06-26T05:24:03;23.40;80.00
20337;DHT22;10326;53.660;10.200;2023-06-26T05:26:32;23.40;80.10
20337;DHT22;10326;53.660;10.200;2023-06-26T05:29:00;23.50;80.10
20337;DHT22;10326;53.660;10.200;2023-06-26T05:31:28;23.50;80.00
20337;DHT22;10326;53.660;10.200;2023-06-26T05:33:58;23.50;80.00
20337;DHT22;10326;53.660;10.200;2023-06-26T05:36:27;23.60;80.00
20337;DHT22;10326;53.660;10.200;2023-06-26T05:38:56;23.60;80.20
20337;DHT22;10326;53.660;10.200;2023-06-26T05:41:25;23.60;80.30
20337;DHT22;10326;53.660;10.200;2023-06-26T05:43:53;23.70;80.30
20337;DHT22;10326;53.660;10.200;2023-06-26T05:46:20;23.70;80.10
20337;DHT22;10326;53.660;10.200;2023-06-26T05:48:47;23.70;80.10
20337;DHT22;10326;53.660;10.200;2023-06-26T05:51:15;23.70;80.10
20337;DHT22;10326;53.660;10.200;2023-06-26T05:53:43;23.80;80.10
20337;DHT22;10326;53.660;10.200;2023-06-26T05:56:11;23.80;80.10
20337;DHT22;10326;53.660;10.200;2023-06-26T05:58:41;23.90;80.20
20337;DHT22;10326;53.660;10.200;2023-06-26T06:01:09;23.90;80.20
20337;DHT22;10326;53.660;10.200;2023-06-26T06:03:36;24.00;80.30
20337;DHT22;10326;53.660;10.200;2023-06-26T06:08:31;24.00;80.40
20337;DHT22;10326;53.660;10.200;2023-06-26T06:13:27;24.10;80.50
20337;DHT22;10326;53.660;10.200;2023-06-26T06:15:56;24.10;80.50
20337;DHT22;10326;53.660;10.200;2023-06-26T06:18:23;24.20;80.60
20337;DHT22;10326;53.660;10.200;2023-06-26T06:20:50;24.20;80.60
20337;DHT22;10326;53.660;10.200;2023-06-26T06:23:18;24.30;80.70
20337;DHT22;10326;53.660;10.200;2023-06-26T06:25:45;24.30;80.30
20337;DHT22;10326;53.660;10.200;2023-06-26T06:28:13;24.40;80.40
20337;DHT22;10326;53.660;10.200;2023-06-26T06:30:42;24.40;80.40
20337;DHT22;10326;53.660;10.200;2023-06-26T06:33:10;24.40;80.30
20337;DHT22;10326;53.660;10.200;2023-06-26T06:35:38;24.50;80.30
20337;DHT22;10326;53.660;10.200;2023-06-26T06:38:05;24.50;80.20
20337;DHT22;10326;53.660;10.200;2023-06-26T06:40:32;24.60;80.20
20337;DHT22;10326;53.660;10.200;2023-06-26T06:43:00;24.60;79.90
20337;DHT22;10326;53.660;10.200;2023-06-26T06:45:27;24.70;80.00
20337;DHT22;10326;53.660;10.200;2023-06-26T06:47:54;24.70;80.00
20337;DHT22;10326;53.660;10.200;2023-06-26T06:50:22;24.80;79.90
20337;DHT22;10326;53.660;10.200;2023-06-26T06:52:57;24.80;79.90
20337;DHT22;10326;53.660;10.200;2023-06-26T06:55:24;24.90;79.90
20337;DHT22;10326;53.660;10.200;2023-06-26T06:57:51;25.00;79.90
20337;DHT22;10326;53.660;10.200;2023-06-26T07:00:19;25.00;79.80
20337;DHT22;10326;53.660;10.200;2023-06-26T07:02:46;25.10;79.40
20337;DHT22;10326;53.660;10.200;2023-06-26T07:05:13;25.20;79.40
20337;DHT22;10326;53.660;10.200;2023-06-26T07:07:42;25.20;79.40
20337;DHT22;10326;53.660;10.200;2023-06-26T07:10:13;25.30;79.30
20337;DHT22;10326;53.660;10.200;2023-06-26T07:12:41;25.30;79.00
20337;DHT22;10326;53.660;10.200;2023-06-26T07:15:10;25.40;78.70
20337;DHT22;10326;53.660;10.200;2023-06-26T07:17:37;25.40;78.60
20337;DHT22;10326;53.660;10.200;2023-06-26T07:20:06;25.50;78.50
20337;DHT22;10326;53.660;10.200;2023-06-26T07:22:36;25.50;78.40
20337;DHT22;10326;53.660;10.200;2023-06-26T07:25:06;25.60;78.30
20337;DHT22;10326;53.660;10.200;2023-06-26T07:27:34;25.60;78.40
20337;DHT22;10326;53.660;10.200;2023-06-26T07:30:02;25.80;78.70
20337;DHT22;10326;53.660;10.200;2023-06-26T07:32:30;25.80;78.50
20337;DHT22;10326;53.660;10.200;2023-06-26T07:34:57;25.80;78.40
20337;DHT22;10326;53.660;10.200;2023-06-26T07:37:24;25.90;78.40
20337;DHT22;10326;53.660;10.200;2023-06-26T07:39:52;26.00;78.30
20337;DHT22;10326;53.660;10.200;2023-06-26T07:42:21;26.00;78.80
20337;DHT22;10326;53.660;10.200;2023-06-26T07:44:48;26.10;77.80
20337;DHT22;10326;53.660;10.200;2023-06-26T07:47:15;26.10;77.70
20337;DHT22;10326;53.660;10.200;2023-06-26T07:49:42;26.20;77.60
20337;DHT22;10326;53.660;10.200;2023-06-26T07:52:10;26.30;77.90
20337;DHT22;10326;53.660;10.200;2023-06-26T07:54:37;26.30;77.50
20337;DHT22;10326;53.660;10.200;2023-06-26T07:57:05;26.40;77.30
20337;DHT22;10326;53.660;10.200;2023-06-26T07:59:35;26.40;77.00
20337;DHT22;10326;53.660;10.200;2023-06-26T08:02:03;26.50;77.00
20337;DHT22;10326;53.660;10.200;2023-06-26T08:04:31;26.50;77.10
20337;DHT22;10326;53.660;10.200;2023-06-26T08:07:00;26.60;77.30
20337;DHT22;10326;53.660;10.200;2023-06-26T08:09:30;26.60;77.10
20337;DHT22;10326;53.660;10.200;2023-06-26T08:11:59;26.70;77.30
20337;DHT22;10326;53.660;10.200;2023-06-26T08:14:27;26.70;76.80
20337;DHT22;10326;53.660;10.200;2023-06-26T08:16:56;26.80;76.70
20337;DHT22;10326;53.660;10.200;2023-06-26T08:19:25;26.80;76.60
20337;DHT22;10326;53.660;10.200;2023-06-26T08:21:52;26.90;76.50
20337;DHT22;10326;53.660;10.200;2023-06-26T08:24:19;27.00;76.20
20337;DHT22;10326;53.660;10.200;2023-06-26T08:26:47;27.00;76.30
20337;DHT22;10326;53.660;10.200;2023-06-26T08:29:15;27.00;76.10
20337;DHT22;10326;53.660;10.200;2023-06-26T08:31:42;27.10;76.30
20337;DHT22;10326;53.660;10.200;2023-06-26T08:34:11;27.20;76.20
20337;DHT22;10326;53.660;10.200;2023-06-26T08:36:38;27.20;75.70
20337;DHT22;10326;53.660;10.200;2023-06-26T08:39:05;27.20;75.10
20337;DHT22;10326;53.660;10.200;2023-06-26T08:41:34;27.30;75.60
20337;DHT22;10326;53.660;10.200;2023-06-26T08:44:02;27.30;75.50
20337;DHT22;10326;53.660;10.200;2023-06-26T08:46:30;27.30;75.80
20337;DHT22;10326;53.660;10.200;2023-06-26T08:49:01;27.40;75.90
20337;DHT22;10326;53.660;10.200;2023-06-26T08:51:36;27.40;75.30
20337;DHT22;10326;53.660;10.200;2023-06-26T08:54:10;27.50;75.70
20337;DHT22;10326;53.660;10.200;2023-06-26T08:56:42;27.50;75.40
20337;DHT22;10326;53.660;10.200;2023-06-26T08:59:12;27.60;75.10
20337;DHT22;10326;53.660;10.200;2023-06-26T09:01:42;27.70;75.10
20337;DHT22;10326;53.660;10.200;2023-06-26T09:04:09;27.70;74.90
20337;DHT22;10326;53.660;10.200;2023-06-26T09:06:38;27.70;74.90
20337;DHT22;10326;53.660;10.200;2023-06-26T09:09:06;27.80;74.90
20337;DHT22;10326;53.660;10.200;2023-06-26T09:11:34;27.80;75.00
20337;DHT22;10326;53.660;10.200;2023-06-26T09:14:01;27.80;74.60
20337;DHT22;10326;53.660;10.200;2023-06-26T09:16:39;27.90;74.00
20337;DHT22;10326;53.660;10.200;2023-06-26T09:19:09;27.90;74.30
20337;DHT22;10326;53.660;10.200;2023-06-26T09:21:40;27.90;73.80
20337;DHT22;10326;53.660;10.200;2023-06-26T09:24:11;28.00;73.40
20337;DHT22;10326;53.660;10.200;2023-06-26T09:26:40;28.10;73.70
20337;DHT22;10326;53.660;10.200;2023-06-26T09:31:37;28.20;71.90
20337;DHT22;10326;53.660;10.200;2023-06-26T09:34:04;28.30;71.70
20337;DHT22;10326;53.660;10.200;2023-06-26T09:36:33;28.40;71.60
20337;DHT22;10326;53.660;10.200;2023-06-26T09:39:04;28.40;71.90
20337;DHT22;10326;53.660;10.200;2023-06-26T09:41:36;28.50;71.60
20337;DHT22;10326;53.660;10.200;2023-06-26T09:44:05;28.60;71.90
20337;DHT22;10326;53.660;10.200;2023-06-26T09:46:33;28.60;71.00
20337;DHT22;10326;53.660;10.200;2023-06-26T09:49:05;28.60;71.20
20337;DHT22;10326;53.660;10.200;2023-06-26T09:51:33;28.60;70.50
20337;DHT22;10326;53.660;10.200;2023-06-26T09:54:11;28.70;70.90
20337;DHT22;10326;53.660;10.200;2023-06-26T09:56:39;28.70;68.80
20337;DHT22;10326;53.660;10.200;2023-06-26T09:59:07;28.60;69.70
20337;DHT22;10326;53.660;10.200;2023-06-26T10:01:41;28.60;70.00
20337;DHT22;10326;53.660;10.200;2023-06-26T10:04:26;28.50;69.60
20337;DHT22;10326;53.660;10.200;2023-06-26T10:06:55;28.40;69.60
20337;DHT22;10326;53.660;10.200;2023-06-26T10:09:25;28.20;68.80
20337;DHT22;10326;53.660;10.200;2023-06-26T10:11:57;28.00;68.10
20337;DHT22;10326;53.660;10.200;2023-06-26T10:17:34;27.60;68.40
20337;DHT22;10326;53.660;10.200;2023-06-26T10:20:57;27.40;68.80
20337;DHT22;10326;53.660;10.200;2023-06-26T10:23:30;27.20;69.30
20337;DHT22;10326;53.660;10.200;2023-06-26T10:26:12;27.10;69.30
20337;DHT22;10326;53.660;10.200;2023-06-26T10:28:42;27.00;69.70
20337;DHT22;10326;53.660;10.200;2023-06-26T10:31:11;26.90;70.00
20337;DHT22;10326;53.660;10.200;2023-06-26T10:33:39;26.80;70.30
20337;DHT22;10326;53.660;10.200;2023-06-26T10:36:14;26.70;70.60
20337;DHT22;10326;53.660;10.200;2023-06-26T10:38:56;26.60;71.40
20337;DHT22;10326;53.660;10.200;2023-06-26T10:41:26;26.50;72.00
20337;DHT22;10326;53.660;10.200;2023-06-26T10:47:28;26.20;74.20
20337;DHT22;10326;53.660;10.200;2023-06-26T11:38:54;24.30;81.90
20337;DHT22;10326;53.660;10.200;2023-06-26T11:41:22;24.30;81.60
20337;DHT22;10326;53.660;10.200;2023-06-26T11:43:51;24.20;81.30
20337;DHT22;10326;53.660;10.200;2023-06-26T11:46:20;24.20;82.00
20337;DHT22;10326;53.660;10.200;2023-06-26T11:48:48;24.20;82.30
20337;DHT22;10326;53.660;10.200;2023-06-26T11:51:27;24.20;82.50
20337;DHT22;10326;53.660;10.200;2023-06-26T11:54:03;24.30;82.70
20337;DHT22;10326;53.660;10.200;2023-06-26T11:56:31;24.30;82.20
20337;DHT22;10326;53.660;10.200;2023-06-26T11:59:00;24.40;81.70
20337;DHT22;10326;53.660;10.200;2023-06-26T12:01:32;24.50;80.90
20337;DHT22;10326;53.660;10.200;2023-06-26T12:04:02;24.50;80.50
20337;DHT22;10326;53.660;10.200;2023-06-26T12:06:33;24.50;78.70
20337;DHT22;10326;53.660;10.200;2023-06-26T12:09:04;24.40;78.90
20337;DHT22;10326;53.660;10.200;2023-06-26T12:11:43;24.40;80.00
20337;DHT22;10326;53.660;10.200;2023-06-26T12:14:13;24.40;79.80
20337;DHT22;10326;53.660;10.200;2023-06-26T12:16:40;24.50;78.70
20337;DHT22;10326;53.660;10.200;2023-06-26T12:19:08;24.50;77.40
20337;DHT22;10326;53.660;10.200;2023-06-26T12:21:47;24.50;77.00
20337;DHT22;10326;53.660;10.200;2023-06-26T12:24:20;24.40;76.50
20337;DHT22;10326;53.660;10.200;2023-06-26T12:26:54;24.50;76.90
20337;DHT22;10326;53.660;10.200;2023-06-26T12:29:30;24.40;76.60
20337;DHT22;10326;53.660;10.200;2023-06-26T12:31:59;24.50;76.10
20337;DHT22;10326;53.660;10.200;2023-06-26T12:34:28;24.40;75.90
20337;DHT22;10326;53.660;10.200;2023-06-26T12:37:01;24.50;76.50
20337;DHT22;10326;53.660;10.200;2023-06-26T12:39:45;24.50;75.60
20337;DHT22;10326;53.660;10.200;2023-06-26T12:42:15;24.50;74.70
20337;DHT22;10326;53.660;10.200;2023-06-26T12:44:43;24.60;75.70
20337;DHT22;10326;53.660;10.200;2023-06-26T12:47:13;24.70;74.30
20337;DHT22;10326;53.660;10.200;2023-06-26T12:49:44;24.70;72.30
20337;DHT22;10326;53.660;10.200;2023-06-26T12:52:15;24.70;71.50
20337;DHT22;10326;53.660;10.200;2023-06-26T12:54:49;24.70;71.50
20337;DHT22;10326;53.660;10.200;2023-06-26T12:57:30;24.70;71.30
20337;DHT22;10326;53.660;10.200;2023-06-26T12:59:59;24.80;71.80
20337;DHT22;10326;53.660;10.200;2023-06-26T13:02:28;24.80;71.10
20337;DHT22;10326;53.660;10.200;2023-06-26T13:04:55;24.80;71.10
20337;DHT22;10326;53.660;10.200;2023-06-26T13:07:24;24.90;71.40
20337;DHT22;10326;53.660;10.200;2023-06-26T13:09:52;24.90;70.50
20337;DHT22;10326;53.660;10.200;2023-06-26T13:12:30;24.90;70.10
20337;DHT22;10326;53.660;10.200;2023-06-26T13:14:57;24.90;70.00
20337;DHT22;10326;53.660;10.200;2023-06-26T13:17:28;24.90;69.80
20337;DHT22;10326;53.660;10.200;2023-06-26T13:19:56;24.90;69.60
20337;DHT22;10326;53.660;10.200;2023-06-26T13:22:34;24.90;70.00
20337;DHT22;10326;53.660;10.200;2023-06-26T13:25:13;24.90;70.40
20337;DHT22;10326;53.660;10.200;2023-06-26T13:27:41;25.00;69.50
20337;DHT22;10326;53.660;10.200;2023-06-26T13:30:10;25.00;68.80
20337;DHT22;10326;53.660;10.200;2023-06-26T13:32:42;25.00;68.00
20337;DHT22;10326;53.660;10.200;2023-06-26T13:35:11;25.00;67.90
20337;DHT22;10326;53.660;10.200;2023-06-26T13:37:40;25.00;67.70
20337;DHT22;10326;53.660;10.200;2023-06-26T13:40:09;25.00;68.10
20337;DHT22;10326;53.660;10.200;2023-06-26T13:42:48;25.10;67.50
20337;DHT22;10326;53.660;10.200;2023-06-26T13:45:15;25.10;67.20
20337;DHT22;10326;53.660;10.200;2023-06-26T13:47:42;25.10;67.50
20337;DHT22;10326;53.660;10.200;2023-06-26T13:50:13;25.20;67.10
20337;DHT22;10326;53.660;10.200;2023-06-26T13:52:40;25.20;66.80
20337;DHT22;10326;53.660;10.200;2023-06-26T13:55:09;25.20;66.00
20337;DHT22;10326;53.660;10.200;2023-06-26T13:57:37;25.20;66.60
20337;DHT22;10326;53.660;10.200;2023-06-26T14:00:09;25.20;65.50
20337;DHT22;10326;53.660;10.200;2023-06-26T14:02:38;25.30;66.00
20337;DHT22;10326;53.660;10.200;2023-06-26T14:05:06;25.30;65.30
20337;DHT22;10326;53.660;10.200;2023-06-26T14:07:34;25.30;64.90
20337;DHT22;10326;53.660;10.200;2023-06-26T14:10:04;25.30;64.40
20337;DHT22;10326;53.660;10.200;2023-06-26T14:12:32;25.30;64.10
20337;DHT22;10326;53.660;10.200;2023-06-26T14:15:01;25.20;62.80
20337;DHT22;10326;53.660;10.200;2023-06-26T14:17:30;25.20;63.20
20337;DHT22;10326;53.660;10.200;2023-06-26T14:19:57;25.20;62.20
20337;DHT22;10326;53.660;10.200;2023-06-26T14:22:24;25.10;62.90
20337;DHT22;10326;53.660;10.200;2023-06-26T14:24:53;25.10;62.60
20337;DHT22;10326;53.660;10.200;2023-06-26T14:27:20;25.10;62.40
20337;DHT22;10326;53.660;10.200;2023-06-26T14:29:51;25.10;61.50
20337;DHT22;10326;53.660;10.200;2023-06-26T14:32:18;25.10;60.50
20337;DHT22;10326;53.660;10.200;2023-06-26T14:34:49;25.10;60.30
20337;DHT22;10326;53.660;10.200;2023-06-26T14:37:16;25.10;60.10
20337;DHT22;10326;53.660;10.200;2023-06-26T14:39:44;25.00;60.10
20337;DHT22;10326;53.660;10.200;2023-06-26T14:42:11;25.00;59.70
20337;DHT22;10326;53.660;10.200;2023-06-26T14:44:42;25.00;59.40
20337;DHT22;10326;53.660;10.200;2023-06-26T14:47:13;25.00;59.10
20337;DHT22;10326;53.660;10.200;2023-06-26T14:49:40;25.00;59.10
20337;DHT22;10326;53.660;10.200;2023-06-26T14:52:09;25.00;59.80
20337;DHT22;10326;53.660;10.200;2023-06-26T14:54:36;25.10;59.00
20337;DHT22;10326;53.660;10.200;2023-06-26T14:57:06;25.10;58.00
20337;DHT22;10326;53.660;10.200;2023-06-26T14:59:33;25.10;58.10
20337;DHT22;10326;53.660;10.200;2023-06-26T15:02:00;25.10;58.10
20337;DHT22;10326;53.660;10.200;2023-06-26T15:04:28;25.10;58.30
20337;DHT22;10326;53.660;10.200;2023-06-26T15:06:58;25.10;58.40
20337;DHT22;10326;53.660;10.200;2023-06-26T15:09:27;25.10;58.40
20337;DHT22;10326;53.660;10.200;2023-06-26T15:11:55;25.00;58.10
20337;DHT22;10326;53.660;10.200;2023-06-26T15:14:22;25.00;58.40
20337;DHT22;10326;53.660;10.200;2023-06-26T15:16:55;24.90;58.50
20337;DHT22;10326;53.660;10.200;2023-06-26T15:19:27;24.90;58.70
20337;DHT22;10326;53.660;10.200;2023-06-26T15:21:55;24.80;58.60
20337;DHT22;10326;53.660;10.200;2023-06-26T15:24:22;24.70;58.90
20337;DHT22;10326;53.660;10.200;2023-06-26T15:26:54;24.70;59.40
20337;DHT22;10326;53.660;10.200;2023-06-26T15:29:22;24.70;59.70
20337;DHT22;10326;53.660;10.200;2023-06-26T15:31:49;24.60;60.20
20337;DHT22;10326;53.660;10.200;2023-06-26T15:34:16;24.70;59.70
20337;DHT22;10326;53.660;10.200;2023-06-26T15:36:43;24.80;58.90
20337;DHT22;10326;53.660;10.200;2023-06-26T15:39:11;24.80;59.00
20337;DHT22;10326;53.660;10.200;2023-06-26T15:41:38;24.80;58.90
20337;DHT22;10326;53.660;10.200;2023-06-26T15:44:07;24.80;58.90
20337;DHT22;10326;53.660;10.200;2023-06-26T15:46:35;24.80;58.50
20337;DHT22;10326;53.660;10.200;2023-06-26T15:49:06;24.70;58.00
20337;DHT22;10326;53.660;10.200;2023-06-26T15:51:35;24.70;58.00
20337;DHT22;10326;53.660;10.200;2023-06-26T15:54:03;24.60;58.10
20337;DHT22;10326;53.660;10.200;2023-06-26T15:56:30;24.50;57.90
20337;DHT22;10326;53.660;10.200;2023-06-26T15:58:58;24.40;58.10
20337;DHT22;10326;53.660;10.200;2023-06-26T16:01:27;24.40;57.80
20337;DHT22;10326;53.660;10.200;2023-06-26T16:03:54;24.30;57.70
20337;DHT22;10326;53.660;10.200;2023-06-26T16:06:21;24.20;57.80
20337;DHT22;10326;53.660;10.200;2023-06-26T16:08:48;24.20;58.40
20337;DHT22;10326;53.660;10.200;2023-06-26T16:11:18;24.10;58.80
20337;DHT22;10326;53.660;10.200;2023-06-26T16:13:45;24.10;58.80
20337;DHT22;10326;53.660;10.200;2023-06-26T16:16:13;24.00;59.00
20337;DHT22;10326;53.660;10.200;2023-06-26T16:18:42;23.90;58.80
20337;DHT22;10326;53.660;10.200;2023-06-26T16:21:09;23.80;59.00
20337;DHT22;10326;53.660;10.200;2023-06-26T16:23:36;23.80;58.90
20337;DHT22;10326;53.660;10.200;2023-06-26T16:26:03;23.70;59.30
20337;DHT22;10326;53.660;10.200;2023-06-26T16:28:30;23.60;59.50
20337;DHT22;10326;53.660;10.200;2023-06-26T16:30:57;23.50;59.80